createdAt,value
2022-10-23T00:01:39.672Z,99978.34
2022-10-23T00:04:15.593Z,99980.54
2022-10-23T00:06:48.702Z,99983.89
2022-10-23T00:09:22.947Z,99982.30
2022-10-23T00:11:55.580Z,99981.50
2022-10-23T00:14:28.136Z,99985.05
2022-10-23T00:17:00.313Z,99984.59
2022-10-23T00:19:30.807Z,99986.06
2022-10-23T00:22:02.931Z,99981.48
2022-10-23T00:24:34.993Z,99987.27
2022-10-23T00:27:05.658Z,99991.27
2022-10-23T00:29:38.064Z,99990.85
2022-10-23T00:32:11.957Z,99995.89
2022-10-23T00:34:42.373Z,99995.25
2022-10-23T00:37:14.475Z,99995.19
2022-10-23T00:39:44.920Z,99992.39
2022-10-23T00:42:19.253Z,99992.21
2022-10-23T00:45:12.168Z,99990.50
2022-10-23T00:47:44.999Z,99985.10
2022-10-23T00:50:17.857Z,99990.42
2022-10-23T00:52:52.910Z,99993.67
2022-10-23T00:55:27.807Z,99993.52
2022-10-23T00:58:00.539Z,99992.80
2022-10-23T01:00:43.246Z,99991.15
2022-10-23T01:03:17.387Z,99987.00
2022-10-23T01:05:55.147Z,99990.63
2022-10-23T01:08:33.649Z,99990.77
2022-10-23T01:11:13.437Z,99992.19
2022-10-23T01:13:53.364Z,99991.23
2022-10-23T01:16:32.469Z,99993.83
2022-10-23T01:19:17.868Z,99991.27
2022-10-23T01:22:02.840Z,99987.39
2022-10-23T01:24:48.113Z,99983.92
2022-10-23T01:27:29.578Z,99988.34
2022-10-23T01:30:09.759Z,99986.08
2022-10-23T01:32:54.024Z,99987.17
2022-10-23T01:35:30.282Z,99986.27
2022-10-23T01:38:10.790Z,99987.61
2022-10-23T01:40:49.941Z,99988.71
2022-10-23T01:43:27.204Z,99991.91
2022-10-23T01:46:04.320Z,99994.31
2022-10-23T01:48:39.018Z,99994.83
2022-10-23T01:51:13.024Z,99994.02
2022-10-23T01:53:47.921Z,99996.68
2022-10-23T01:56:25.046Z,99994.02
2022-10-23T01:59:02.374Z,99997.97
2022-10-23T02:01:38.918Z,99998.63
2022-10-23T02:04:15.403Z,99996.80
2022-10-23T02:06:48.257Z,100006.55
2022-10-23T02:09:20.873Z,100003.80
2022-10-23T02:11:59.993Z,100004.97
2022-10-23T02:14:41.074Z,100001.83
2022-10-23T02:17:19.353Z,100002.88
2022-10-23T02:19:59.780Z,100004.22
2022-10-23T02:22:36.445Z,100003.55
2022-10-23T02:25:14.791Z,100002.20
2022-10-23T02:27:52.904Z,100003.10
2022-10-23T02:30:26.442Z,100005.24
2022-10-23T02:33:12.194Z,100003.16
2022-10-23T02:35:45.277Z,100004.33
2022-10-23T02:38:38.168Z,100004.30
2022-10-23T02:41:20.371Z,100009.02
2022-10-23T02:44:04.649Z,100020.73
2022-10-23T02:46:47.716Z,100019.45
2022-10-23T02:49:25.907Z,100016.52
2022-10-23T02:52:09.969Z,100017.09
2022-10-23T02:55:07.422Z,100015.00
2022-10-23T02:57:56.292Z,100022.17
2022-10-23T03:00:31.236Z,100019.64
2022-10-23T03:03:07.320Z,100024.44
2022-10-23T03:05:44.988Z,100028.86
2022-10-23T03:08:19.175Z,100027.34
2022-10-23T03:10:51.526Z,100028.05
2022-10-23T03:13:25.076Z,100028.25
2022-10-23T03:15:57.852Z,100030.85
2022-10-23T03:18:32.226Z,100028.41
2022-10-23T03:21:05.059Z,100032.86
2022-10-23T03:23:38.792Z,100033.41
2022-10-23T03:26:11.245Z,100031.67
2022-10-23T03:28:47.202Z,100025.98
2022-10-23T03:31:21.098Z,100031.83
2022-10-23T03:33:55.314Z,100033.53
2022-10-23T03:36:27.892Z,100026.75
2022-10-23T03:39:00.433Z,100020.92
2022-10-23T03:41:33.235Z,100024.62
2022-10-23T03:46:42.504Z,100023.20
2022-10-23T03:49:16.069Z,100027.94
2022-10-23T03:51:52.236Z,100022.38
2022-10-23T03:54:27.617Z,100026.45
2022-10-23T03:56:59.855Z,100028.84
2022-10-23T03:59:32.564Z,100026.39
2022-10-23T04:02:04.897Z,100026.92
2022-10-23T04:04:37.320Z,100033.15
2022-10-23T04:07:09.369Z,100035.10
2022-10-23T04:09:41.914Z,100034.64
2022-10-23T04:12:14.135Z,100033.17
2022-10-23T04:14:46.152Z,100029.61
2022-10-23T04:17:16.685Z,100035.68
2022-10-23T04:19:48.760Z,100042.55
2022-10-23T04:22:24.677Z,100040.33
2022-10-23T04:25:00.148Z,100046.98
2022-10-23T04:27:34.567Z,100044.35
2022-10-23T04:30:08.612Z,100045.02
2022-10-23T04:32:40.909Z,100047.66
2022-10-23T04:35:13.481Z,100043.33
2022-10-23T04:37:45.754Z,100045.48
2022-10-23T04:40:18.509Z,100048.80
2022-10-23T04:42:50.641Z,100046.97
2022-10-23T04:45:23.809Z,100046.70
2022-10-23T04:47:56.447Z,100043.56
2022-10-23T04:50:29.947Z,100045.38
2022-10-23T04:53:14.574Z,100044.38
2022-10-23T04:56:05.394Z,100039.36
2022-10-23T04:58:49.131Z,100038.64
2022-10-23T05:01:21.956Z,100039.88
2022-10-23T05:03:56.820Z,100044.62
2022-10-23T05:06:29.462Z,100037.16
2022-10-23T05:09:23.529Z,100037.63
2022-10-23T05:12:01.734Z,100038.27
2022-10-23T05:14:34.101Z,100037.67
2022-10-23T05:17:14.326Z,100044.23
2022-10-23T05:19:50.265Z,100042.41
2022-10-23T05:22:25.052Z,100036.46
2022-10-23T05:24:58.819Z,100041.79
2022-10-23T05:27:31.844Z,100050.76
2022-10-23T05:30:04.314Z,100053.41
2022-10-23T05:32:41.301Z,100057.36
2022-10-23T05:35:17.312Z,100060.02
2022-10-23T05:37:55.561Z,100057.98
2022-10-23T05:40:30.344Z,100062.68
2022-10-23T05:43:06.936Z,100062.28
2022-10-23T05:45:53.700Z,100066.77
2022-10-23T05:48:37.917Z,100068.72
2022-10-23T05:51:28.495Z,100074.78
2022-10-23T05:54:19.455Z,100074.05
2022-10-23T05:57:04.576Z,100070.45
2022-10-23T05:59:40.843Z,100069.17
2022-10-23T06:02:25.443Z,100073.77
2022-10-23T06:05:12.287Z,100081.39
2022-10-23T06:08:00.244Z,100081.90
2022-10-23T06:10:34.093Z,100079.29
2022-10-23T06:13:07.570Z,100078.08
2022-10-23T06:15:39.961Z,100077.08
2022-10-23T06:18:20.523Z,100074.63
2022-10-23T06:21:01.143Z,100075.70
2022-10-23T06:23:34.678Z,100076.32
2022-10-23T06:26:26.929Z,100075.45
2022-10-23T06:29:22.053Z,100070.80
2022-10-23T06:31:55.331Z,100069.48
2022-10-23T06:34:28.273Z,100067.98
2022-10-23T06:37:01.022Z,100066.29
2022-10-23T06:39:41.572Z,100066.36
2022-10-23T06:42:43.472Z,100062.52
2022-10-23T06:45:35.255Z,100070.56
2022-10-23T06:48:33.830Z,100069.35
2022-10-23T06:51:11.799Z,100078.48
2022-10-23T06:53:46.916Z,100078.35
2022-10-23T06:56:45.573Z,100084.45
2022-10-23T06:59:18.022Z,100086.00
2022-10-23T07:01:50.403Z,100086.48
2022-10-23T07:04:22.799Z,100082.19
2022-10-23T07:06:57.866Z,100081.11
2022-10-23T07:09:36.296Z,100086.88
2022-10-23T07:12:22.850Z,100091.83
2022-10-23T07:14:59.928Z,100095.58
2022-10-23T07:17:32.719Z,100095.58
2022-10-23T07:20:05.521Z,100096.25
2022-10-23T07:22:38.534Z,100092.80
2022-10-23T07:25:34.070Z,100094.34
2022-10-23T07:28:06.963Z,100097.36
2022-10-23T07:30:40.860Z,100097.36
2022-10-23T07:33:13.981Z,100098.48
2022-10-23T07:35:55.266Z,100097.62
2022-10-23T07:38:31.675Z,100089.59
2022-10-23T07:41:06.811Z,100084.33
2022-10-23T07:43:42.007Z,100083.67
2022-10-23T07:46:14.239Z,100078.97
2022-10-23T07:48:47.262Z,100075.79
2022-10-23T07:51:20.519Z,100080.89
2022-10-23T07:53:56.622Z,100084.89
2022-10-23T07:56:47.495Z,100087.58
2022-10-23T07:59:19.898Z,100091.59
2022-10-23T08:01:56.887Z,100096.35
2022-10-23T08:04:37.744Z,100097.26
2022-10-23T08:07:16.817Z,100093.52
2022-10-23T08:09:50.095Z,100092.36
2022-10-23T08:12:22.378Z,100092.04
2022-10-23T08:14:54.996Z,100092.48
2022-10-23T08:17:28.763Z,100086.98
2022-10-23T08:20:22.789Z,100090.17
2022-10-23T08:22:55.731Z,100086.46
2022-10-23T08:25:29.580Z,100083.82
2022-10-23T08:28:04.283Z,100078.19
2022-10-23T08:30:40.381Z,100077.00
2022-10-23T08:33:12.510Z,100084.23
2022-10-23T08:35:44.904Z,100082.47
2022-10-23T08:38:17.199Z,100084.23
2022-10-23T08:40:50.658Z,100086.88
2022-10-23T08:43:48.013Z,100088.58
2022-10-23T08:46:38.497Z,100090.14
2022-10-23T08:49:36.727Z,100096.73
2022-10-23T08:52:14.250Z,100096.42
2022-10-23T08:54:57.935Z,100096.62
2022-10-23T08:57:38.792Z,100099.24
2022-10-23T09:00:18.409Z,100094.77
2022-10-23T09:02:53.412Z,100095.57
2022-10-23T09:05:35.321Z,100094.94
2022-10-23T09:08:14.221Z,100094.48
2022-10-23T09:10:59.944Z,100090.67
2022-10-23T09:13:51.611Z,100094.94
2022-10-23T09:16:37.955Z,100105.55
2022-10-23T09:19:16.652Z,100112.46
2022-10-23T09:21:51.057Z,100119.05
2022-10-23T09:24:25.361Z,100127.39
2022-10-23T09:26:57.578Z,100136.44
2022-10-23T09:29:32.978Z,100135.03
2022-10-23T09:32:06.960Z,100135.63
2022-10-23T09:34:39.224Z,100126.64
2022-10-23T09:37:25.719Z,100128.83
2022-10-23T09:40:20.131Z,100135.89
2022-10-23T09:42:58.014Z,100128.70
2022-10-23T09:45:33.909Z,100124.42
2022-10-23T10:00:55.337Z,100104.96
2022-10-23T10:03:48.126Z,100098.65
2022-10-23T10:06:24.025Z,100089.65
2022-10-23T10:08:56.301Z,100089.42
2022-10-23T10:11:33.110Z,100083.70
2022-10-23T10:14:22.298Z,100081.92
2022-10-23T10:16:53.775Z,100081.85
2022-10-23T10:19:40.497Z,100079.45
2022-10-23T10:22:20.751Z,100079.84
2022-10-23T10:24:56.594Z,100077.42
2022-10-23T10:27:41.500Z,100077.20
2022-10-23T10:30:15.875Z,100074.42
2022-10-23T10:32:51.628Z,100070.27
2022-10-23T10:35:37.787Z,100065.78
2022-10-23T10:38:19.596Z,100057.99
2022-10-23T10:40:59.552Z,100063.08
2022-10-23T10:43:41.008Z,100061.98
2022-10-23T10:48:56.429Z,100055.11
2022-10-23T10:52:02.307Z,100052.83
2022-10-23T10:54:43.626Z,100057.00
2022-10-23T10:57:23.771Z,100053.06
2022-10-23T10:59:57.078Z,100046.63
2022-10-23T11:02:32.265Z,100044.41
2022-10-23T11:05:14.471Z,100035.73
2022-10-23T11:07:53.502Z,100034.49
2022-10-23T11:10:22.610Z,100032.20
2022-10-23T11:12:52.144Z,100025.56
2022-10-23T11:15:25.778Z,100021.29
2022-10-23T11:17:59.256Z,100016.08
2022-10-23T11:20:50.204Z,100006.17
2022-10-23T11:23:40.261Z,100003.26
2022-10-23T11:26:21.788Z,99994.03
2022-10-23T11:29:12.841Z,99991.08
2022-10-23T11:31:53.664Z,99990.29
2022-10-23T11:34:36.110Z,99979.52
2022-10-23T11:37:06.125Z,99981.11
2022-10-23T11:39:38.915Z,99976.68
2022-10-23T11:42:29.534Z,99974.02
2022-10-23T11:44:58.356Z,99974.66
2022-10-23T11:47:35.034Z,99977.02
2022-10-23T11:50:25.637Z,99968.88
2022-10-23T11:53:13.597Z,99973.66
2022-10-23T11:56:00.132Z,99971.64
2022-10-23T11:58:40.391Z,99968.55
2022-10-23T12:01:24.746Z,99970.38
2022-10-23T12:03:58.738Z,99961.92
2022-10-23T12:06:31.082Z,99962.25
2022-10-23T12:09:01.877Z,99955.82
2022-10-23T12:11:43.112Z,99961.85
2022-10-23T12:14:33.524Z,99956.80
2022-10-23T12:17:26.722Z,99953.36
2022-10-23T12:20:02.916Z,99952.71
2022-10-23T12:22:39.466Z,99950.21
2022-10-23T12:25:13.205Z,99939.85
2022-10-23T12:27:48.209Z,99945.93
2022-10-23T12:30:22.396Z,99951.34
2022-10-23T12:33:06.243Z,99947.04
2022-10-23T12:35:59.364Z,99939.39
2022-10-23T12:38:33.815Z,99933.49
2022-10-23T12:41:14.990Z,99924.73
2022-10-23T12:43:52.975Z,99920.58
2022-10-23T12:46:32.182Z,99920.52
2022-10-23T12:49:03.649Z,99917.39
2022-10-23T12:51:35.223Z,99913.52
2022-10-23T12:54:14.337Z,99909.79
2022-10-23T12:56:44.598Z,99906.84
2022-10-23T12:59:18.094Z,99908.89
2022-10-23T13:01:52.404Z,99906.16
2022-10-23T13:04:29.448Z,99903.14
2022-10-23T13:07:00.401Z,99900.80
2022-10-23T13:09:34.662Z,99892.23
2022-10-23T13:12:38.522Z,99891.52
2022-10-23T13:15:17.668Z,99891.88
2022-10-23T13:17:58.891Z,99885.94
2022-10-23T13:20:29.966Z,99880.23
2022-10-23T13:23:02.078Z,99878.43
2022-10-23T13:25:33.246Z,99873.14
2022-10-23T13:28:14.714Z,99874.77
2022-10-23T13:30:45.643Z,99868.19
2022-10-23T13:33:25.059Z,99868.48
2022-10-23T13:35:57.746Z,99869.62
2022-10-23T13:38:31.463Z,99870.42
2022-10-23T13:41:01.679Z,99871.14
2022-10-23T13:43:32.657Z,99872.60
2022-10-23T13:46:02.458Z,99868.53
2022-10-23T13:48:31.238Z,99868.20
2022-10-23T13:51:11.808Z,99869.10
2022-10-23T13:53:40.638Z,99867.39
2022-10-23T13:56:11.863Z,99868.02
2022-10-23T13:58:40.584Z,99865.22
2022-10-23T14:01:16.164Z,99868.52
2022-10-23T14:03:45.161Z,99862.64
2022-10-23T14:06:13.777Z,99860.21
2022-10-23T14:08:42.495Z,99865.39
2022-10-23T14:11:11.607Z,99864.11
2022-10-23T14:13:40.996Z,99862.30
2022-10-23T14:16:13.363Z,99858.30
2022-10-23T14:18:42.014Z,99858.80
2022-10-23T14:21:12.731Z,99852.73
2022-10-23T14:23:41.501Z,99858.80
2022-10-23T14:26:11.884Z,99859.94
2022-10-23T14:28:40.786Z,99857.04
2022-10-23T14:31:10.889Z,99854.63
2022-10-23T14:33:40.202Z,99852.34
2022-10-23T14:36:10.603Z,99848.92
2022-10-23T14:38:39.321Z,99850.09
2022-10-23T14:41:12.328Z,99846.61
2022-10-23T14:43:42.445Z,99843.58
2022-10-23T14:46:12.703Z,99845.47
2022-10-23T14:48:45.459Z,99843.65
2022-10-23T14:51:21.562Z,99840.71
2022-10-23T14:53:58.843Z,99841.83
2022-10-23T14:56:28.328Z,99839.48
2022-10-23T14:59:02.042Z,99837.48
2022-10-23T15:01:32.509Z,99837.42
2022-10-23T15:04:01.801Z,99833.80
2022-10-23T15:06:30.468Z,99839.44
2022-10-23T15:08:59.102Z,99837.33
2022-10-23T15:11:28.544Z,99836.81
2022-10-23T15:13:59.862Z,99842.63
2022-10-23T15:16:28.898Z,99842.27
2022-10-23T15:18:57.728Z,99843.20
2022-10-23T15:21:26.302Z,99844.75
2022-10-23T15:23:54.863Z,99844.25
2022-10-23T15:26:24.967Z,99845.05
2022-10-23T15:28:59.053Z,99846.01
2022-10-23T15:31:45.823Z,99841.45
2022-10-23T15:34:16.752Z,99838.19
2022-10-23T15:36:46.618Z,99841.85
2022-10-23T15:39:16.746Z,99839.56
2022-10-23T15:41:45.992Z,99845.27
2022-10-23T15:44:18.911Z,99844.23
2022-10-23T15:46:48.109Z,99843.58
2022-10-23T15:49:17.140Z,99836.09
2022-10-23T15:51:46.369Z,99828.00
2022-10-23T15:54:18.329Z,99830.57
2022-10-23T15:56:48.579Z,99836.86
2022-10-23T15:59:18.190Z,99841.45
2022-10-23T16:01:47.109Z,99841.84
2022-10-23T16:04:16.951Z,99842.28
2022-10-23T16:06:46.137Z,99838.61
2022-10-23T16:09:15.484Z,99840.69
2022-10-23T16:11:44.328Z,99841.17
2022-10-23T16:14:16.565Z,99845.25
2022-10-23T16:16:45.417Z,99842.93
2022-10-23T16:19:15.566Z,99846.64
2022-10-23T16:21:44.538Z,99850.43
2022-10-23T16:24:13.549Z,99857.71
2022-10-23T16:26:43.427Z,99857.39
2022-10-23T16:29:14.173Z,99860.70
2022-10-23T16:31:45.035Z,99864.13
2022-10-23T16:34:13.663Z,99872.23
2022-10-23T16:36:42.378Z,99874.14
2022-10-23T16:39:35.505Z,99881.48
2022-10-23T16:42:22.990Z,99878.63
2022-10-23T16:45:03.134Z,99882.11
2022-10-23T16:47:32.450Z,99882.89
2022-10-23T16:50:01.339Z,99884.20
2022-10-23T16:52:33.967Z,99885.43
2022-10-23T16:55:02.570Z,99881.30
2022-10-23T16:57:31.375Z,99886.68
2022-10-23T17:00:00.078Z,99885.30
2022-10-23T17:02:30.132Z,99880.50
2022-10-23T17:04:59.464Z,99877.70
2022-10-23T17:07:28.284Z,99877.45
2022-10-23T17:09:57.178Z,99880.41
2022-10-23T17:12:25.783Z,99881.84
2022-10-23T17:14:54.398Z,99878.85
2022-10-23T17:17:23.002Z,99875.12
2022-10-23T17:19:51.777Z,99878.20
2022-10-23T17:22:20.655Z,99874.62
2022-10-23T17:24:52.943Z,99872.55
2022-10-23T17:27:21.876Z,99863.88
2022-10-23T17:29:50.528Z,99860.98
2022-10-23T17:34:55.877Z,99858.34
2022-10-23T17:37:24.881Z,99866.60
2022-10-23T17:39:53.560Z,99865.21
2022-10-23T17:42:22.175Z,99861.69
2022-10-23T17:44:50.734Z,99858.19
2022-10-23T17:47:19.472Z,99858.67
2022-10-23T17:49:48.119Z,99863.16
2022-10-23T17:52:16.784Z,99866.04
2022-10-23T17:54:45.456Z,99860.84
2022-10-23T17:57:14.268Z,99855.55
2022-10-23T17:59:43.132Z,99852.54
2022-10-23T18:02:12.872Z,99849.65
2022-10-23T18:04:41.559Z,99850.57
2022-10-23T18:07:10.223Z,99852.39
2022-10-23T18:09:41.661Z,99846.89
2022-10-23T18:12:10.641Z,99842.49
2022-10-23T18:14:39.260Z,99836.39
2022-10-23T18:17:07.934Z,99837.45
2022-10-23T18:19:36.732Z,99837.19
2022-10-23T18:22:05.482Z,99831.02
2022-10-23T18:24:37.406Z,99826.75
2022-10-23T18:27:08.116Z,99815.31
2022-10-23T18:29:37.590Z,99816.57
2022-10-23T18:32:06.639Z,99813.02
2022-10-23T18:34:35.272Z,99814.05
2022-10-23T18:37:12.777Z,99814.86
2022-10-23T18:39:49.739Z,99811.10
2022-10-23T18:42:18.533Z,99811.70
2022-10-23T18:44:49.363Z,99813.80
2022-10-23T18:47:18.481Z,99815.86
2022-10-23T18:49:49.638Z,99814.58
2022-10-23T18:52:21.370Z,99819.20
2022-10-23T18:54:51.178Z,99819.10
2022-10-23T18:57:20.177Z,99816.39
2022-10-23T18:59:50.385Z,99815.47
2022-10-23T19:02:20.259Z,99814.17
2022-10-23T19:04:49.176Z,99811.21
2022-10-23T19:07:18.360Z,99812.08
2022-10-23T19:09:47.587Z,99812.34
2022-10-23T19:12:17.105Z,99811.86
2022-10-23T19:14:45.735Z,99814.88
2022-10-23T19:17:19.003Z,99813.61
2022-10-23T19:19:51.778Z,99812.64
2022-10-23T19:22:20.894Z,99807.40
2022-10-23T19:24:54.763Z,99803.77
2022-10-23T19:27:24.477Z,99795.52
2022-10-23T19:29:54.599Z,99792.23
2022-10-23T19:32:23.208Z,99784.52
2022-10-23T19:34:51.908Z,99777.33
2022-10-23T19:37:20.589Z,99767.59
2022-10-23T19:39:49.163Z,99768.77
2022-10-23T19:42:17.995Z,99762.60
2022-10-23T19:44:46.648Z,99752.74
2022-10-23T19:47:15.244Z,99745.88
2022-10-23T19:49:43.945Z,99744.82
2022-10-23T19:52:12.605Z,99737.77
2022-10-23T19:54:41.263Z,99734.72
2022-10-23T19:57:10.416Z,99730.59
2022-10-23T19:59:39.052Z,99739.51
2022-10-23T20:02:08.632Z,99740.83
2022-10-23T20:04:37.243Z,99742.31
2022-10-23T20:07:05.974Z,99745.10
2022-10-23T20:09:35.232Z,99745.33
2022-10-23T20:12:04.491Z,99743.02
2022-10-23T20:14:33.276Z,99735.30
2022-10-23T20:17:02.802Z,99723.09
2022-10-23T20:19:32.395Z,99723.52
2022-10-23T20:22:00.980Z,99726.55
2022-10-23T20:24:29.688Z,99726.16
2022-10-23T20:26:58.288Z,99725.09
2022-10-23T20:29:26.933Z,99730.90
2022-10-23T20:31:55.878Z,99736.27
2022-10-23T20:34:24.468Z,99742.98
2022-10-23T20:36:53.388Z,99739.11
2022-10-23T20:39:24.998Z,99731.03
2022-10-23T20:41:54.905Z,99726.50
2022-10-23T20:44:24.428Z,99721.32
2022-10-23T20:46:53.880Z,99721.38
2022-10-23T20:49:22.891Z,99724.20
2022-10-23T20:51:55.052Z,99729.58
2022-10-23T20:54:25.474Z,99729.52
2022-10-23T20:56:54.239Z,99725.23
2022-10-23T20:59:23.099Z,99716.42
2022-10-23T21:01:54.515Z,99712.97
2022-10-23T21:04:25.803Z,99708.20
2022-10-23T21:07:09.546Z,99700.88
2022-10-23T21:09:42.365Z,99706.17
2022-10-23T21:12:10.979Z,99714.16
2022-10-23T21:14:39.877Z,99716.48
2022-10-23T21:17:10.268Z,99709.29
2022-10-23T21:19:39.846Z,99694.48
2022-10-23T21:22:08.450Z,99682.82
2022-10-23T21:24:37.047Z,99682.10
2022-10-23T21:27:05.958Z,99679.27
2022-10-23T21:29:34.615Z,99675.96
2022-10-23T21:32:03.249Z,99673.67
2022-10-23T21:34:32.211Z,99664.13
2022-10-23T21:37:17.078Z,99664.31
2022-10-23T21:39:46.558Z,99663.20
2022-10-23T21:42:15.459Z,99659.09
2022-10-23T21:44:44.814Z,99651.15
2022-10-23T21:47:13.500Z,99657.46
2022-10-23T21:52:08.361Z,99662.09
2022-10-23T21:54:40.975Z,99664.41
2022-10-23T21:57:16.612Z,99656.39
2022-10-23T21:59:49.057Z,99655.36
2022-10-23T22:02:21.275Z,99648.61
2022-10-23T22:04:53.619Z,99647.52
2022-10-23T22:07:25.834Z,99653.04
2022-10-23T22:09:57.962Z,99656.67
2022-10-23T22:12:28.452Z,99642.98
2022-10-23T22:15:00.426Z,99638.85
2022-10-23T22:17:31.202Z,99627.76
2022-10-23T22:20:03.510Z,99617.02
2022-10-23T22:22:35.762Z,99613.94
2022-10-23T22:25:07.326Z,99614.34
2022-10-23T22:27:41.434Z,99614.67
2022-10-23T22:30:15.095Z,99611.70
2022-10-23T22:32:47.313Z,99609.41
2022-10-23T22:35:19.994Z,99607.33
2022-10-23T22:37:52.293Z,99598.84
2022-10-23T22:40:24.447Z,99599.41
2022-10-23T22:42:56.742Z,99594.04
2022-10-23T22:45:27.452Z,99593.20
2022-10-23T22:47:59.509Z,99598.29
2022-10-23T22:50:31.811Z,99608.52
2022-10-23T22:53:04.190Z,99615.29
2022-10-23T22:55:36.761Z,99619.94
2022-10-23T22:58:08.870Z,99620.09
2022-10-23T23:00:43.664Z,99611.36
2022-10-23T23:03:16.001Z,99602.90
2022-10-23T23:05:49.530Z,99599.09
2022-10-23T23:08:21.596Z,99598.67
2022-10-23T23:10:54.837Z,99596.32
2022-10-23T23:13:27.327Z,99596.35
2022-10-23T23:16:00.085Z,99592.31
2022-10-23T23:18:32.777Z,99587.08
2022-10-23T23:21:06.519Z,99587.37
2022-10-23T23:23:39.010Z,99593.73
2022-10-23T23:26:11.729Z,99611.42
2022-10-23T23:28:44.334Z,99619.11
2022-10-23T23:31:21.614Z,99619.91
2022-10-23T23:33:54.669Z,99615.05
2022-10-23T23:36:28.724Z,99614.01
2022-10-23T23:39:01.397Z,99607.99
2022-10-23T23:41:33.781Z,99605.30
2022-10-23T23:44:06.188Z,99595.92
2022-10-23T23:46:38.450Z,99599.95
2022-10-23T23:49:10.707Z,99601.68
2022-10-23T23:51:43.157Z,99604.12
2022-10-23T23:54:15.353Z,99617.64
2022-10-23T23:56:47.484Z,99624.89
2022-10-23T23:59:18.096Z,99625.96
